createdAt,value
2022-08-30T00:00:16.634Z,20.70
2022-08-30T00:02:45.024Z,20.70
2022-08-30T00:05:13.377Z,20.70
2022-08-30T00:07:40.700Z,20.60
2022-08-30T00:10:08.426Z,20.70
2022-08-30T00:12:35.931Z,20.70
2022-08-30T00:15:09.691Z,20.60
2022-08-30T00:17:43.449Z,20.60
2022-08-30T00:20:15.923Z,20.60
2022-08-30T00:22:43.165Z,20.60
2022-08-30T00:25:14.063Z,20.60
2022-08-30T00:27:45.269Z,20.60
2022-08-30T00:30:15.133Z,20.60
2022-08-30T00:32:42.374Z,20.60
2022-08-30T00:35:14.189Z,20.60
2022-08-30T00:37:44.481Z,20.60
2022-08-30T00:40:34.847Z,20.60
2022-08-30T00:43:06.464Z,20.60
2022-08-30T00:45:35.927Z,20.60
2022-08-30T00:48:07.218Z,20.60
2022-08-30T00:50:42.021Z,20.60
2022-08-30T00:53:16.128Z,20.60
2022-08-30T00:55:49.021Z,20.60
2022-08-30T00:58:21.773Z,20.60
2022-08-30T01:00:51.224Z,20.60
2022-08-30T01:03:21.113Z,20.60
2022-08-30T01:05:52.015Z,20.60
2022-08-30T01:08:22.655Z,20.60
2022-08-30T01:10:54.880Z,20.60
2022-08-30T01:13:23.721Z,20.60
2022-08-30T01:15:53.955Z,20.60
2022-08-30T01:18:25.803Z,20.50
2022-08-30T01:21:10.959Z,20.50
2022-08-30T01:23:42.059Z,20.50
2022-08-30T01:26:10.726Z,20.40
2022-08-30T01:28:42.517Z,20.40
2022-08-30T01:31:12.287Z,20.30
2022-08-30T01:33:40.048Z,20.40
2022-08-30T01:36:12.319Z,20.40
2022-08-30T01:38:48.718Z,20.40
2022-08-30T01:41:22.290Z,20.30
2022-08-30T01:43:50.863Z,20.40
2022-08-30T01:46:20.405Z,20.40
2022-08-30T01:48:52.005Z,20.40
2022-08-30T01:51:24.462Z,20.40
2022-08-30T01:53:52.986Z,20.40
2022-08-30T01:56:20.460Z,20.40
2022-08-30T01:58:50.083Z,20.40
2022-08-30T02:01:22.285Z,20.40
2022-08-30T02:03:49.851Z,20.40
2022-08-30T02:06:22.843Z,20.40
2022-08-30T02:08:50.429Z,20.40
2022-08-30T02:11:17.962Z,20.40
2022-08-30T02:13:46.227Z,20.40
2022-08-30T02:16:17.435Z,20.30
2022-08-30T02:18:45.515Z,20.30
2022-08-30T02:21:13.968Z,20.20
2022-08-30T02:23:42.031Z,20.20
2022-08-30T02:26:10.652Z,20.20
2022-08-30T02:28:42.841Z,20.20
2022-08-30T02:31:20.393Z,20.20
2022-08-30T02:33:50.768Z,20.20
2022-08-30T02:36:20.704Z,20.10
2022-08-30T02:38:49.246Z,20.00
2022-08-30T02:41:17.500Z,20.00
2022-08-30T02:43:47.284Z,19.90
2022-08-30T02:46:14.649Z,19.80
2022-08-30T02:48:42.761Z,19.80
2022-08-30T02:51:12.850Z,19.80
2022-08-30T02:53:43.696Z,19.80
2022-08-30T02:56:13.736Z,19.80
2022-08-30T02:58:42.581Z,19.80
2022-08-30T03:01:18.387Z,19.70
2022-08-30T03:03:47.307Z,19.70
2022-08-30T03:06:14.986Z,19.60
2022-08-30T03:08:45.071Z,19.50
2022-08-30T03:11:13.788Z,19.50
2022-08-30T03:13:41.599Z,19.50
2022-08-30T03:16:11.859Z,19.50
2022-08-30T03:18:43.157Z,19.40
2022-08-30T03:21:15.848Z,19.40
2022-08-30T03:23:44.148Z,19.40
2022-08-30T03:26:14.759Z,19.40
2022-08-30T03:28:45.431Z,19.40
2022-08-30T03:31:15.235Z,19.40
2022-08-30T03:33:43.248Z,19.40
2022-08-30T03:36:10.973Z,19.40
2022-08-30T03:38:38.857Z,19.40
2022-08-30T03:41:09.180Z,19.40
2022-08-30T03:43:41.153Z,19.30
2022-08-30T03:46:11.932Z,19.30
2022-08-30T03:48:39.610Z,19.30
2022-08-30T03:51:06.860Z,19.40
2022-08-30T03:53:37.082Z,19.40
2022-08-30T03:56:04.458Z,19.30
2022-08-30T03:58:31.774Z,19.30
2022-08-30T04:00:59.511Z,19.30
2022-08-30T04:03:26.814Z,19.40
2022-08-30T04:05:56.843Z,19.40
2022-08-30T04:08:26.781Z,19.30
2022-08-30T04:10:55.558Z,19.40
2022-08-30T04:13:24.148Z,19.40
2022-08-30T04:15:51.507Z,19.40
2022-08-30T04:18:21.322Z,19.30
2022-08-30T04:20:49.133Z,19.30
2022-08-30T04:23:21.536Z,19.30
2022-08-30T04:25:48.871Z,19.30
2022-08-30T04:28:21.501Z,19.40
2022-08-30T04:30:51.605Z,19.40
2022-08-30T04:33:19.715Z,19.40
2022-08-30T04:35:50.509Z,19.40
2022-08-30T04:38:18.417Z,19.40
2022-08-30T04:40:50.151Z,19.40
2022-08-30T04:43:20.062Z,19.30
2022-08-30T04:45:48.224Z,19.30
2022-08-30T04:48:18.539Z,19.30
2022-08-30T04:50:46.540Z,19.30
2022-08-30T04:53:17.703Z,19.20
2022-08-30T04:55:47.423Z,19.20
2022-08-30T04:58:19.951Z,19.20
2022-08-30T05:00:47.246Z,19.20
2022-08-30T05:03:16.240Z,19.30
2022-08-30T05:05:50.830Z,19.20
2022-08-30T05:08:24.778Z,19.10
2022-08-30T05:10:55.671Z,19.10
2022-08-30T05:13:26.228Z,19.20
2022-08-30T05:16:07.831Z,19.20
2022-08-30T05:18:39.273Z,19.20
2022-08-30T05:21:13.282Z,19.20
2022-08-30T05:23:41.558Z,19.20
2022-08-30T05:26:14.609Z,19.30
2022-08-30T05:28:47.768Z,19.10
2022-08-30T05:31:26.164Z,19.10
2022-08-30T05:33:55.048Z,19.10
2022-08-30T05:36:27.548Z,19.20
2022-08-30T05:38:56.286Z,19.30
2022-08-30T05:41:26.712Z,19.40
2022-08-30T05:43:58.334Z,19.40
2022-08-30T05:49:10.737Z,19.60
2022-08-30T05:51:43.294Z,19.60
2022-08-30T05:54:13.105Z,19.70
2022-08-30T05:56:41.715Z,19.80
2022-08-30T05:59:09.209Z,19.80
2022-08-30T06:01:42.690Z,19.70
2022-08-30T06:04:16.269Z,19.60
2022-08-30T06:06:44.374Z,19.30
2022-08-30T06:09:13.439Z,19.50
2022-08-30T06:11:41.516Z,19.50
2022-08-30T06:14:09.050Z,19.70
2022-08-30T06:16:38.883Z,19.80
2022-08-30T06:19:11.204Z,19.80
2022-08-30T06:21:42.417Z,20.00
2022-08-30T06:24:11.354Z,20.00
2022-08-30T06:26:42.340Z,20.10
2022-08-30T06:29:16.791Z,19.80
2022-08-30T06:31:44.406Z,19.80
2022-08-30T06:34:12.289Z,19.60
2022-08-30T06:36:40.124Z,19.80
2022-08-30T06:39:09.960Z,20.10
2022-08-30T06:41:39.157Z,20.10
2022-08-30T06:44:06.707Z,20.10
2022-08-30T06:46:37.212Z,20.10
2022-08-30T06:49:06.259Z,19.80
2022-08-30T06:51:39.727Z,19.60
2022-08-30T06:54:10.730Z,19.70
2022-08-30T06:56:57.803Z,19.80
2022-08-30T06:59:27.031Z,19.80
2022-08-30T07:01:57.658Z,19.90
2022-08-30T07:04:28.899Z,19.90
2022-08-30T07:06:58.987Z,20.10
2022-08-30T07:09:26.435Z,20.20
2022-08-30T07:11:54.234Z,20.10
2022-08-30T07:14:22.543Z,20.30
2022-08-30T07:16:51.147Z,20.50
2022-08-30T07:19:21.056Z,20.60
2022-08-30T07:21:51.770Z,20.60
2022-08-30T07:24:21.191Z,20.60
2022-08-30T07:26:51.723Z,20.50
2022-08-30T07:29:21.172Z,20.40
2022-08-30T07:31:48.813Z,20.40
2022-08-30T07:34:16.419Z,20.40
2022-08-30T07:36:44.155Z,20.60
2022-08-30T07:39:11.941Z,21.00
2022-08-30T07:41:41.842Z,21.30
2022-08-30T07:44:09.266Z,21.60
2022-08-30T07:46:38.623Z,22.00
2022-08-30T07:49:10.983Z,22.30
2022-08-30T07:51:40.490Z,22.70
2022-08-30T07:54:08.159Z,22.80
2022-08-30T07:56:36.782Z,22.80
2022-08-30T07:59:04.456Z,23.00
2022-08-30T08:01:32.966Z,23.10
2022-08-30T08:04:02.955Z,23.30
2022-08-30T08:06:35.202Z,23.20
2022-08-30T08:09:02.898Z,23.20
2022-08-30T08:11:33.819Z,23.50
2022-08-30T08:14:02.351Z,23.50
2022-08-30T08:16:31.582Z,24.10
2022-08-30T08:19:02.360Z,24.80
2022-08-30T08:21:32.094Z,24.80
2022-08-30T08:23:59.313Z,24.90
2022-08-30T08:26:26.976Z,24.90
2022-08-30T08:28:59.668Z,25.20
2022-08-30T08:31:33.412Z,25.80
2022-08-30T08:34:06.233Z,25.10
2022-08-30T08:36:35.741Z,25.40
2022-08-30T08:39:08.174Z,25.60
2022-08-30T08:42:08.953Z,25.90
2022-08-30T08:45:05.442Z,26.30
2022-08-30T08:48:13.900Z,27.20
2022-08-30T08:51:02.746Z,27.70
2022-08-30T08:53:45.961Z,28.00
2022-08-30T08:56:17.576Z,28.50
2022-08-30T08:58:51.510Z,28.70
2022-08-30T09:01:28.668Z,29.00
2022-08-30T09:04:07.883Z,29.00
2022-08-30T09:06:53.813Z,28.00
2022-08-30T09:09:46.448Z,28.00
2022-08-30T09:12:16.349Z,28.30
2022-08-30T09:14:48.220Z,28.90
2022-08-30T09:17:17.755Z,29.60
2022-08-30T09:19:59.037Z,30.20
2022-08-30T09:22:46.791Z,30.40
2022-08-30T09:25:28.789Z,30.00
2022-08-30T09:28:12.959Z,30.30
2022-08-30T09:31:27.000Z,30.10
2022-08-30T09:34:05.558Z,30.30
2022-08-30T09:36:44.036Z,29.70
2022-08-30T09:39:33.674Z,29.30
2022-08-30T09:42:31.086Z,29.30
2022-08-30T09:45:10.506Z,29.30
2022-08-30T09:47:43.202Z,29.10
2022-08-30T09:50:17.917Z,28.50
2022-08-30T09:53:31.130Z,28.60
2022-08-30T09:56:20.954Z,29.10
2022-08-30T09:59:19.265Z,28.90
2022-08-30T10:01:57.010Z,28.30
2022-08-30T10:05:01.744Z,27.80
2022-08-30T10:07:42.744Z,27.30
2022-08-30T10:10:51.260Z,27.20
2022-08-30T10:13:42.941Z,27.50
2022-08-30T10:16:21.262Z,27.70
2022-08-30T10:19:06.211Z,28.10
2022-08-30T10:21:45.223Z,28.50
2022-08-30T10:24:21.340Z,28.60
2022-08-30T10:27:03.308Z,28.00
2022-08-30T10:29:44.843Z,28.10
2022-08-30T10:32:28.438Z,28.60
2022-08-30T10:35:19.312Z,29.40
2022-08-30T10:37:57.126Z,29.30
2022-08-30T10:40:50.712Z,29.30
2022-08-30T10:43:42.924Z,28.80
2022-08-30T10:46:41.782Z,28.20
2022-08-30T10:49:19.799Z,28.60
2022-08-30T10:51:58.898Z,29.00
2022-08-30T10:54:50.442Z,28.80
2022-08-30T10:57:21.277Z,29.00
2022-08-30T10:59:56.736Z,29.10
2022-08-30T11:02:39.194Z,28.80
2022-08-30T11:05:28.101Z,29.10
2022-08-30T11:08:00.462Z,29.80
2022-08-30T11:10:56.916Z,30.10
2022-08-30T11:13:27.466Z,30.60
2022-08-30T11:15:59.862Z,30.60
2022-08-30T11:18:43.344Z,30.30
2022-08-30T11:21:42.519Z,30.20
2022-08-30T11:24:25.344Z,30.60
2022-08-30T11:26:59.580Z,30.90
2022-08-30T11:29:35.425Z,30.20
2022-08-30T11:32:17.250Z,29.20
2022-08-30T11:34:47.442Z,29.60
2022-08-30T11:37:15.302Z,29.90
2022-08-30T11:39:47.164Z,29.80
2022-08-30T11:42:42.440Z,30.10
2022-08-30T11:45:26.821Z,31.30
2022-08-30T11:48:00.700Z,31.70
2022-08-30T11:51:04.414Z,30.80
2022-08-30T11:53:48.324Z,30.10
2022-08-30T11:56:49.107Z,30.60
2022-08-30T11:59:54.192Z,30.90
2022-08-30T12:02:50.454Z,30.30
2022-08-30T12:05:38.180Z,29.70
2022-08-30T12:08:20.358Z,29.40
2022-08-30T12:10:56.312Z,28.90
2022-08-30T12:13:38.784Z,29.10
2022-08-30T12:16:16.215Z,29.20
2022-08-30T12:18:52.773Z,29.90
2022-08-30T12:21:28.682Z,30.30
2022-08-30T12:24:10.071Z,30.30
2022-08-30T12:26:42.933Z,30.20
2022-08-30T12:29:17.951Z,29.20
2022-08-30T12:31:51.932Z,29.00
2022-08-30T12:34:27.740Z,29.90
2022-08-30T12:37:26.282Z,30.10
2022-08-30T12:40:14.627Z,29.80
2022-08-30T12:42:55.569Z,30.30
2022-08-30T12:45:26.893Z,30.40
2022-08-30T12:48:04.408Z,30.60
2022-08-30T12:50:37.826Z,30.90
2022-08-30T12:53:13.926Z,31.40
2022-08-30T12:56:14.254Z,31.80
2022-08-30T12:58:53.264Z,32.00
2022-08-30T13:01:36.922Z,30.80
2022-08-30T13:04:21.990Z,29.80
2022-08-30T13:07:01.105Z,30.30
2022-08-30T13:09:44.069Z,30.80
2022-08-30T13:12:23.042Z,31.10
2022-08-30T13:14:52.415Z,31.10
2022-08-30T13:17:30.289Z,30.80
2022-08-30T13:20:30.396Z,30.70
2022-08-30T13:23:03.528Z,30.70
2022-08-30T13:25:32.831Z,30.90
2022-08-30T13:28:02.213Z,31.20
2022-08-30T13:30:30.787Z,30.50
2022-08-30T13:32:58.936Z,30.10
2022-08-30T13:35:30.517Z,29.40
2022-08-30T13:38:00.998Z,28.80
2022-08-30T13:40:28.498Z,28.50
2022-08-30T13:42:55.830Z,28.40
2022-08-30T13:45:45.695Z,28.70
2022-08-30T13:48:17.355Z,29.10
2022-08-30T13:50:55.491Z,29.30
2022-08-30T13:56:14.044Z,29.80
2022-08-30T13:58:42.169Z,29.70
2022-08-30T14:01:12.014Z,29.90
2022-08-30T14:04:13.186Z,30.10
2022-08-30T14:06:34.336Z,29.90
2022-08-30T14:09:06.312Z,29.60
2022-08-30T14:11:34.995Z,29.40
2022-08-30T14:14:30.213Z,29.30
2022-08-30T14:16:53.559Z,29.50
2022-08-30T14:19:20.972Z,29.40
2022-08-30T14:21:48.886Z,29.20
2022-08-30T14:24:19.940Z,29.20
2022-08-30T14:26:51.256Z,29.40
2022-08-30T14:29:21.975Z,29.20
2022-08-30T14:31:49.435Z,29.10
2022-08-30T14:34:17.602Z,29.00
2022-08-30T14:36:46.254Z,29.10
2022-08-30T14:39:20.226Z,29.30
2022-08-30T14:41:54.093Z,28.80
2022-08-30T14:44:25.869Z,28.50
2022-08-30T14:46:58.683Z,28.30
2022-08-30T14:49:27.739Z,28.20
2022-08-30T14:51:58.179Z,28.10
2022-08-30T14:54:28.631Z,28.10
2022-08-30T14:56:56.330Z,28.10
2022-08-30T14:59:25.124Z,28.10
2022-08-30T15:01:53.164Z,28.20
2022-08-30T15:04:23.949Z,28.00
2022-08-30T15:06:53.336Z,28.00
2022-08-30T15:09:23.854Z,28.10
2022-08-30T15:11:59.605Z,28.20
2022-08-30T15:14:31.378Z,28.10
2022-08-30T15:17:02.555Z,28.10
2022-08-30T15:19:31.189Z,27.90
2022-08-30T15:22:07.147Z,27.90
2022-08-30T15:24:35.593Z,28.10
2022-08-30T15:27:06.479Z,27.80
2022-08-30T15:29:33.785Z,27.50
2022-08-30T15:32:02.958Z,27.20
2022-08-30T15:34:33.453Z,27.20
2022-08-30T15:37:01.429Z,27.20
2022-08-30T15:39:29.212Z,27.20
2022-08-30T15:42:00.640Z,27.20
2022-08-30T15:44:30.944Z,27.20
2022-08-30T15:46:59.354Z,27.30
2022-08-30T15:49:29.129Z,27.30
2022-08-30T15:52:02.258Z,27.20
2022-08-30T15:54:30.474Z,27.10
2022-08-30T15:57:00.309Z,27.00
2022-08-30T15:59:32.506Z,27.10
2022-08-30T16:02:02.063Z,27.30
2022-08-30T16:04:30.585Z,27.40
2022-08-30T16:07:00.968Z,27.20
2022-08-30T16:09:32.636Z,27.00
2022-08-30T16:12:04.653Z,26.80
2022-08-30T16:14:33.063Z,26.90
2022-08-30T16:17:02.998Z,26.70
2022-08-30T16:19:30.785Z,26.70
2022-08-30T16:21:59.308Z,26.70
2022-08-30T16:24:26.829Z,26.90
2022-08-30T16:26:54.617Z,26.80
2022-08-30T16:29:25.121Z,26.90
2022-08-30T16:31:53.492Z,26.90
2022-08-30T16:34:22.413Z,26.70
2022-08-30T16:36:49.857Z,26.50
2022-08-30T16:39:19.621Z,26.50
2022-08-30T16:41:48.295Z,26.60
2022-08-30T16:44:17.739Z,26.60
2022-08-30T16:46:53.157Z,26.50
2022-08-30T16:49:25.782Z,26.30
2022-08-30T16:51:53.946Z,26.10
2022-08-30T16:54:22.227Z,25.90
2022-08-30T16:56:50.030Z,25.90
2022-08-30T16:59:17.710Z,25.80
2022-08-30T17:01:46.225Z,25.90
2022-08-30T17:04:18.381Z,25.90
2022-08-30T17:06:50.046Z,25.80
2022-08-30T17:09:20.253Z,25.60
2022-08-30T17:11:48.667Z,25.60
2022-08-30T17:14:21.582Z,25.70
2022-08-30T17:17:00.919Z,25.60
2022-08-30T17:19:28.676Z,25.60
2022-08-30T17:21:57.097Z,25.60
2022-08-30T17:24:25.662Z,25.40
2022-08-30T17:26:54.467Z,25.50
2022-08-30T17:29:21.843Z,25.50
2022-08-30T17:31:51.208Z,25.60
2022-08-30T17:34:22.099Z,25.70
2022-08-30T17:36:55.499Z,25.60
2022-08-30T17:39:26.732Z,25.30
2022-08-30T17:41:54.616Z,25.30
2022-08-30T17:44:28.458Z,25.30
2022-08-30T17:46:57.265Z,25.30
2022-08-30T17:49:28.460Z,25.30
2022-08-30T17:52:03.608Z,25.40
2022-08-30T17:54:34.033Z,25.50
2022-08-30T17:57:03.863Z,25.50
2022-08-30T17:59:35.568Z,25.40
2022-08-30T18:02:03.765Z,25.40
2022-08-30T18:04:34.062Z,25.40
2022-08-30T18:07:06.457Z,25.30
2022-08-30T18:09:36.169Z,25.10
2022-08-30T18:12:04.973Z,25.10
2022-08-30T18:14:39.407Z,25.10
2022-08-30T18:17:12.099Z,24.90
2022-08-30T18:19:46.327Z,24.70
2022-08-30T18:22:15.624Z,24.40
2022-08-30T18:24:43.091Z,24.40
2022-08-30T18:27:13.909Z,24.30
2022-08-30T18:29:43.430Z,24.30
2022-08-30T18:32:13.211Z,24.50
2022-08-30T18:34:42.979Z,24.50
2022-08-30T18:37:12.487Z,24.50
2022-08-30T18:39:41.818Z,24.50
2022-08-30T18:42:11.766Z,24.50
2022-08-30T18:44:43.554Z,24.70
2022-08-30T18:47:15.881Z,24.70
2022-08-30T18:49:45.553Z,24.80
2022-08-30T18:52:13.816Z,24.80
2022-08-30T18:54:52.614Z,24.80
2022-08-30T18:57:23.762Z,24.80
2022-08-30T18:59:51.829Z,24.80
2022-08-30T19:02:27.675Z,24.50
2022-08-30T19:04:55.432Z,24.40
2022-08-30T19:07:26.688Z,24.50
2022-08-30T19:10:00.661Z,24.60
2022-08-30T19:12:28.960Z,24.60
2022-08-30T19:14:56.703Z,24.70
2022-08-30T19:17:28.517Z,24.70
2022-08-30T19:19:56.041Z,24.70
2022-08-30T19:22:24.149Z,24.60
2022-08-30T19:24:55.203Z,24.60
2022-08-30T19:27:38.327Z,24.60
2022-08-30T19:30:21.666Z,24.50
2022-08-30T19:32:52.962Z,24.50
2022-08-30T19:35:20.850Z,24.50
2022-08-30T19:37:48.276Z,24.50
2022-08-30T19:40:20.751Z,24.30
2022-08-30T19:42:51.511Z,24.30
2022-08-30T19:45:22.984Z,24.30
2022-08-30T19:47:51.954Z,24.30
2022-08-30T19:50:21.090Z,24.30
2022-08-30T19:52:53.722Z,24.40
2022-08-30T19:55:23.830Z,24.30
2022-08-30T19:57:56.821Z,24.40
2022-08-30T20:00:26.562Z,24.30
2022-08-30T20:02:53.889Z,24.20
2022-08-30T20:05:22.771Z,24.10
2022-08-30T20:07:51.561Z,24.20
2022-08-30T20:10:20.706Z,24.00
2022-08-30T20:12:53.563Z,23.90
2022-08-30T20:15:21.310Z,23.80
2022-08-30T20:18:06.249Z,23.80
2022-08-30T20:20:37.575Z,23.70
2022-08-30T20:23:06.809Z,23.80
2022-08-30T20:25:36.095Z,23.80
2022-08-30T20:28:04.256Z,23.70
2022-08-30T20:30:34.523Z,23.70
2022-08-30T20:33:06.956Z,23.70
2022-08-30T20:35:42.111Z,23.60
2022-08-30T20:38:20.673Z,23.60
2022-08-30T20:40:53.817Z,23.50
2022-08-30T20:43:28.795Z,23.50
2022-08-30T20:45:56.764Z,23.50
2022-08-30T20:48:27.066Z,23.40
2022-08-30T20:50:55.003Z,23.40
2022-08-30T20:53:22.283Z,23.30
2022-08-30T20:55:50.736Z,23.20
2022-08-30T20:58:18.203Z,23.30
2022-08-30T21:00:53.148Z,23.10
2022-08-30T21:03:27.765Z,23.00
2022-08-30T21:05:59.988Z,22.90
2022-08-30T21:08:27.613Z,23.00
2022-08-30T21:10:55.194Z,23.00
2022-08-30T21:13:25.151Z,23.00
2022-08-30T21:16:03.959Z,22.90
2022-08-30T21:18:34.092Z,22.90
2022-08-30T21:21:21.126Z,22.90
2022-08-30T21:24:00.125Z,22.90
2022-08-30T21:26:28.214Z,22.50
2022-08-30T21:28:56.052Z,22.50
2022-08-30T21:31:26.050Z,22.50
2022-08-30T21:33:54.881Z,22.50
2022-08-30T21:36:44.770Z,22.60
2022-08-30T21:39:26.214Z,22.70
2022-08-30T21:41:59.738Z,22.70
2022-08-30T21:44:29.516Z,22.80
2022-08-30T21:46:59.263Z,22.70
2022-08-30T21:49:29.094Z,22.60
2022-08-30T21:51:58.754Z,22.50
2022-08-30T21:54:31.265Z,22.50
2022-08-30T21:57:01.613Z,22.40
2022-08-30T21:59:29.130Z,22.40
2022-08-30T22:01:59.070Z,22.40
2022-08-30T22:04:26.913Z,22.40
2022-08-30T22:06:56.914Z,22.40
2022-08-30T22:09:28.178Z,22.40
2022-08-30T22:11:56.122Z,22.40
2022-08-30T22:14:24.596Z,22.30
2022-08-30T22:16:53.816Z,22.30
2022-08-30T22:19:24.226Z,22.30
2022-08-30T22:22:00.860Z,22.20
2022-08-30T22:24:32.616Z,22.30
2022-08-30T22:27:02.051Z,22.40
2022-08-30T22:29:33.813Z,22.30
2022-08-30T22:32:01.183Z,22.30
2022-08-30T22:34:31.914Z,22.20
2022-08-30T22:36:59.463Z,22.10
2022-08-30T22:39:29.695Z,22.10
2022-08-30T22:42:01.790Z,22.00
2022-08-30T22:44:29.056Z,22.00
2022-08-30T22:46:56.297Z,22.00
2022-08-30T22:49:23.970Z,21.80
2022-08-30T22:51:51.199Z,21.80
2022-08-30T22:54:19.009Z,21.70
2022-08-30T22:56:49.927Z,21.80
2022-08-30T22:59:17.683Z,21.80
2022-08-30T23:01:49.787Z,21.70
2022-08-30T23:04:19.662Z,21.70
2022-08-30T23:06:49.900Z,21.70
2022-08-30T23:09:22.754Z,21.70
2022-08-30T23:11:50.003Z,21.60
2022-08-30T23:14:17.678Z,21.70
2022-08-30T23:16:47.945Z,21.60
2022-08-30T23:19:17.798Z,21.60
2022-08-30T23:21:45.051Z,21.70
2022-08-30T23:24:30.937Z,21.60
2022-08-30T23:27:16.624Z,21.50
2022-08-30T23:30:02.912Z,21.40
2022-08-30T23:32:48.803Z,21.30
2022-08-30T23:35:34.682Z,21.30
2022-08-30T23:38:24.893Z,21.40
2022-08-30T23:41:10.920Z,21.40
2022-08-30T23:43:56.770Z,21.40
2022-08-30T23:46:42.506Z,21.40
2022-08-30T23:49:28.435Z,21.50
2022-08-30T23:52:14.132Z,21.40
2022-08-30T23:55:00.071Z,21.40
2022-08-30T23:57:46.507Z,21.20
